This is the latest recevied weather packets stored in our database for station/object N4PWG. If no packets are shown the sender has not sent any weather packets the latest 10 day(s).
| Time | Temp. | Humidity | Pressure | Rain* | Wind** | Luminosity | Snow |
|---|---|---|---|---|---|---|---|
| 1777762261 | 17.78° C | 54% | 1034.8 hPa | 0 mm | - | 126 W/m² | - |
| 1777761956 | 17.78° C | 54% | 1034.7 hPa | 0 mm | - | 176 W/m² | - |
| 1777761654 | 17.78° C | 56% | 1034.7 hPa | 0 mm | - | 186 W/m² | - |
| 1777761352 | 17.22° C | 57% | 1034.7 hPa | 0 mm | - | 206 W/m² | - |
| 1777761050 | 16.67° C | 59% | 1034.4 hPa | 0 mm | - | 75 W/m² | - |
| 1777760747 | 17.78° C | 56% | 1034.7 hPa | 0 mm | - | 68 W/m² | - |
| 1777760443 | 17.22° C | 53% | 1034.8 hPa | 0 mm | - | 97 W/m² | - |
| 1777760139 | 17.22° C | 47% | 1034.7 hPa | 0 mm | - | 124 W/m² | - |
| 1777759836 | 17.78° C | 48% | 1034.4 hPa | 0 mm | - | 137 W/m² | - |
| 1777759532 | 17.78° C | 47% | 1034.2 hPa | 0 mm | - | 127 W/m² | - |
| 1777759229 | 18.89° C | 45% | 1034.3 hPa | 0 mm | - | 251 W/m² | - |
| 1777758926 | 18.89° C | 42% | 1034.1 hPa | 0 mm | - | 399 W/m² | - |
| 1777758623 | 18.89° C | 42% | 1034.1 hPa | 0 mm | - | 221 W/m² | - |
| 1777758320 | 17.78° C | 47% | 1034 hPa | 0 mm | - | 290 W/m² | - |
| 1777758017 | 18.33° C | 45% | 1034 hPa | 0 mm | - | 458 W/m² | - |
| 1777757714 | 17.78° C | 45% | 1033.9 hPa | 0 mm | - | 147 W/m² | - |
| 1777757412 | 18.33° C | 46% | 1033.9 hPa | 0 mm | - | 155 W/m² | - |
| 1777757110 | 18.33° C | 44% | 1034.1 hPa | 0 mm | - | 213 W/m² | - |
| 1777756808 | 19.44° C | 42% | 1034 hPa | 0 mm | - | 211 W/m² | - |
| 1777756503 | 18.89° C | 44% | 1033.9 hPa | 0 mm | - | 308 W/m² | - |
| 1777756201 | 18.33° C | 46% | 1033.9 hPa | 0 mm | - | 178 W/m² | - |
| 1777755897 | 18.89° C | 41% | 1033.9 hPa | 0 mm | - | 203 W/m² | - |
| 1777755595 | 18.33° C | 43% | 1033.6 hPa | 0 mm | - | 177 W/m² | - |
| 1777755290 | 18.89° C | 40% | 1034 hPa | 0 mm | - | 188 W/m² | - |
| 1777754988 | 19.44° C | 42% | 1033.6 hPa | 0 mm | - | 175 W/m² | - |
* Rain latest hour (hover to see other rain measurements)
** Current wind speed in m/s (hover to see current wind gust speed)